sensor_id;sensor_type;location;lat;lon;timestamp;pressure;altitude;pressure_sealevel;temperature;humidity
84944;BME280;75231;53.650;9.788;2024-01-25T00:01:32;102013.44;;;7.80;79.91
84944;BME280;75231;53.650;9.788;2024-01-25T00:03:58;102017.75;;;7.80;79.99
84944;BME280;75231;53.650;9.788;2024-01-25T00:06:23;102019.19;;;7.89;79.48
84944;BME280;75231;53.650;9.788;2024-01-25T00:08:48;102027.91;;;7.84;80.08
84944;BME280;75231;53.650;9.788;2024-01-25T00:11:14;102029.75;;;7.81;79.82
84944;BME280;75231;53.650;9.788;2024-01-25T00:13:39;102035.72;;;7.81;80.27
84944;BME280;75231;53.650;9.788;2024-01-25T00:16:08;102020.69;;;7.68;80.25
84944;BME280;75231;53.650;9.788;2024-01-25T00:18:33;102029.19;;;7.71;80.28
84944;BME280;75231;53.650;9.788;2024-01-25T00:20:58;102022.44;;;7.67;80.23
84944;BME280;75231;53.650;9.788;2024-01-25T00:23:23;102034.97;;;7.78;80.07
84944;BME280;75231;53.650;9.788;2024-01-25T00:25:49;102043.50;;;7.80;80.07
84944;BME280;75231;53.650;9.788;2024-01-25T00:28:14;102041.00;;;7.78;80.34
84944;BME280;75231;53.650;9.788;2024-01-25T00:30:39;102036.75;;;7.76;80.56
84944;BME280;75231;53.650;9.788;2024-01-25T00:33:05;102033.38;;;7.74;80.26
84944;BME280;75231;53.650;9.788;2024-01-25T00:35:30;102035.84;;;7.77;80.41
84944;BME280;75231;53.650;9.788;2024-01-25T00:37:56;102043.75;;;7.72;80.06
84944;BME280;75231;53.650;9.788;2024-01-25T00:40:21;102024.75;;;7.75;80.40
84944;BME280;75231;53.650;9.788;2024-01-25T00:42:47;102026.59;;;7.71;80.58
84944;BME280;75231;53.650;9.788;2024-01-25T00:45:19;102021.41;;;7.73;80.17
84944;BME280;75231;53.650;9.788;2024-01-25T00:47:45;102007.75;;;7.71;80.38
84944;BME280;75231;53.650;9.788;2024-01-25T00:50:10;102022.25;;;7.73;80.41
84944;BME280;75231;53.650;9.788;2024-01-25T00:52:36;102018.22;;;7.65;80.34
84944;BME280;75231;53.650;9.788;2024-01-25T00:55:02;102028.25;;;7.74;80.23
84944;BME280;75231;53.650;9.788;2024-01-25T00:57:27;102028.13;;;7.77;80.38
84944;BME280;75231;53.650;9.788;2024-01-25T00:59:53;102027.28;;;7.76;80.58
84944;BME280;75231;53.650;9.788;2024-01-25T01:02:20;102019.91;;;7.66;80.54
84944;BME280;75231;53.650;9.788;2024-01-25T01:04:46;102005.47;;;7.60;80.75
84944;BME280;75231;53.650;9.788;2024-01-25T01:07:12;102024.34;;;7.61;80.94
84944;BME280;75231;53.650;9.788;2024-01-25T01:09:37;102022.44;;;7.67;80.49
84944;BME280;75231;53.650;9.788;2024-01-25T01:12:03;102017.44;;;7.61;80.75
84944;BME280;75231;53.650;9.788;2024-01-25T01:14:28;102020.84;;;7.63;80.70
84944;BME280;75231;53.650;9.788;2024-01-25T01:16:53;102026.91;;;7.61;80.57
84944;BME280;75231;53.650;9.788;2024-01-25T01:19:19;102014.16;;;7.57;80.82
84944;BME280;75231;53.650;9.788;2024-01-25T01:21:44;102024.31;;;7.62;80.47
84944;BME280;75231;53.650;9.788;2024-01-25T01:24:10;102015.66;;;7.65;80.57
84944;BME280;75231;53.650;9.788;2024-01-25T01:26:35;102023.50;;;7.60;80.64
84944;BME280;75231;53.650;9.788;2024-01-25T01:29:01;102023.59;;;7.57;80.56
84944;BME280;75231;53.650;9.788;2024-01-25T01:31:26;102048.41;;;7.60;80.42
84944;BME280;75231;53.650;9.788;2024-01-25T01:33:51;102045.84;;;7.60;80.47
84944;BME280;75231;53.650;9.788;2024-01-25T01:36:17;102050.28;;;7.54;80.68
84944;BME280;75231;53.650;9.788;2024-01-25T01:38:42;102043.31;;;7.58;80.22
84944;BME280;75231;53.650;9.788;2024-01-25T01:41:09;102055.16;;;7.64;80.39
84944;BME280;75231;53.650;9.788;2024-01-25T01:43:34;102055.28;;;7.59;80.31
84944;BME280;75231;53.650;9.788;2024-01-25T01:46:09;102044.06;;;7.62;80.40
84944;BME280;75231;53.650;9.788;2024-01-25T01:48:37;102034.69;;;7.59;80.11
84944;BME280;75231;53.650;9.788;2024-01-25T01:51:03;102050.94;;;7.61;80.38
84944;BME280;75231;53.650;9.788;2024-01-25T01:53:28;102053.56;;;7.60;80.38
84944;BME280;75231;53.650;9.788;2024-01-25T01:55:54;102062.97;;;7.61;80.82
84944;BME280;75231;53.650;9.788;2024-01-25T01:58:20;102074.81;;;7.66;80.37
84944;BME280;75231;53.650;9.788;2024-01-25T02:00:47;102074.72;;;7.71;80.40
84944;BME280;75231;53.650;9.788;2024-01-25T02:03:14;102084.25;;;7.67;80.59
84944;BME280;75231;53.650;9.788;2024-01-25T02:05:39;102092.81;;;7.68;80.34
84944;BME280;75231;53.650;9.788;2024-01-25T02:08:04;102090.16;;;7.71;80.61
84944;BME280;75231;53.650;9.788;2024-01-25T02:10:31;102097.22;;;7.64;80.69
84944;BME280;75231;53.650;9.788;2024-01-25T02:12:56;102099.78;;;7.64;80.92
84944;BME280;75231;53.650;9.788;2024-01-25T02:15:21;102090.16;;;7.71;80.74
84944;BME280;75231;53.650;9.788;2024-01-25T02:17:46;102100.13;;;7.81;80.92
84944;BME280;75231;53.650;9.788;2024-01-25T02:20:12;102092.50;;;7.78;80.45
84944;BME280;75231;53.650;9.788;2024-01-25T02:22:37;102101.88;;;7.81;80.73
84944;BME280;75231;53.650;9.788;2024-01-25T02:25:03;102097.66;;;7.78;80.67
84944;BME280;75231;53.650;9.788;2024-01-25T02:27:28;102091.69;;;7.76;80.34
84944;BME280;75231;53.650;9.788;2024-01-25T02:29:53;102105.47;;;7.75;80.79
84944;BME280;75231;53.650;9.788;2024-01-25T02:32:19;102112.34;;;7.75;80.96
84944;BME280;75231;53.650;9.788;2024-01-25T02:34:44;102110.31;;;7.86;80.67
84944;BME280;75231;53.650;9.788;2024-01-25T02:37:09;102108.88;;;7.76;81.02
84944;BME280;75231;53.650;9.788;2024-01-25T02:39:36;102119.84;;;7.82;80.49
84944;BME280;75231;53.650;9.788;2024-01-25T02:42:01;102118.34;;;7.75;80.90
84944;BME280;75231;53.650;9.788;2024-01-25T02:44:26;102121.75;;;7.76;80.87
84944;BME280;75231;53.650;9.788;2024-01-25T02:46:52;102135.25;;;7.84;80.83
84944;BME280;75231;53.650;9.788;2024-01-25T02:49:17;102136.31;;;7.78;80.83
84944;BME280;75231;53.650;9.788;2024-01-25T02:51:42;102149.75;;;7.88;80.35
84944;BME280;75231;53.650;9.788;2024-01-25T02:54:08;102155.59;;;7.93;80.46
84944;BME280;75231;53.650;9.788;2024-01-25T02:56:33;102159.00;;;7.94;80.56
84944;BME280;75231;53.650;9.788;2024-01-25T02:59:01;102164.84;;;8.00;80.34
84944;BME280;75231;53.650;9.788;2024-01-25T03:01:26;102157.03;;;8.03;80.06
84944;BME280;75231;53.650;9.788;2024-01-25T03:03:53;102160.31;;;8.08;79.89
84944;BME280;75231;53.650;9.788;2024-01-25T03:06:18;102156.22;;;8.01;79.83
84944;BME280;75231;53.650;9.788;2024-01-25T03:08:43;102153.84;;;7.95;80.14
84944;BME280;75231;53.650;9.788;2024-01-25T03:11:08;102147.22;;;7.87;80.71
84944;BME280;75231;53.650;9.788;2024-01-25T03:13:34;102146.63;;;7.77;81.19
84944;BME280;75231;53.650;9.788;2024-01-25T03:15:59;102147.13;;;7.90;80.74
84944;BME280;75231;53.650;9.788;2024-01-25T03:18:24;102154.84;;;7.90;80.85
84944;BME280;75231;53.650;9.788;2024-01-25T03:20:50;102152.34;;;7.88;80.44
84944;BME280;75231;53.650;9.788;2024-01-25T03:23:16;102157.34;;;7.93;80.55
84944;BME280;75231;53.650;9.788;2024-01-25T03:25:41;102157.56;;;7.85;80.63
84944;BME280;75231;53.650;9.788;2024-01-25T03:28:06;102156.72;;;7.84;81.03
84944;BME280;75231;53.650;9.788;2024-01-25T03:30:34;102158.44;;;7.84;80.90
84944;BME280;75231;53.650;9.788;2024-01-25T03:33:00;102161.06;;;7.82;81.02
84944;BME280;75231;53.650;9.788;2024-01-25T03:35:25;102167.97;;;7.82;81.03
84944;BME280;75231;53.650;9.788;2024-01-25T03:37:50;102182.53;;;7.83;80.93
84944;BME280;75231;53.650;9.788;2024-01-25T03:40:15;102180.78;;;7.83;81.04
84944;BME280;75231;53.650;9.788;2024-01-25T03:42:50;102189.03;;;7.96;80.95
84944;BME280;75231;53.650;9.788;2024-01-25T03:45:15;102199.22;;;7.99;80.71
84944;BME280;75231;53.650;9.788;2024-01-25T03:47:40;102205.00;;;8.07;80.43
84944;BME280;75231;53.650;9.788;2024-01-25T03:50:06;102205.16;;;8.03;80.47
84944;BME280;75231;53.650;9.788;2024-01-25T03:52:31;102204.16;;;8.07;80.34
84944;BME280;75231;53.650;9.788;2024-01-25T03:54:57;102210.97;;;8.09;80.42
84944;BME280;75231;53.650;9.788;2024-01-25T03:57:22;102214.38;;;8.10;80.44
84944;BME280;75231;53.650;9.788;2024-01-25T03:59:47;102212.56;;;8.13;80.22
84944;BME280;75231;53.650;9.788;2024-01-25T04:02:12;102219.50;;;8.11;80.43
84944;BME280;75231;53.650;9.788;2024-01-25T04:04:38;102213.41;;;8.14;80.31
84944;BME280;75231;53.650;9.788;2024-01-25T04:07:03;102219.72;;;8.04;80.40
84944;BME280;75231;53.650;9.788;2024-01-25T04:09:28;102222.09;;;8.10;80.75
84944;BME280;75231;53.650;9.788;2024-01-25T04:11:54;102205.06;;;8.06;80.75
84944;BME280;75231;53.650;9.788;2024-01-25T04:14:20;102215.41;;;8.04;80.49
84944;BME280;75231;53.650;9.788;2024-01-25T04:16:46;102214.78;;;7.96;80.72
84944;BME280;75231;53.650;9.788;2024-01-25T04:19:12;102217.53;;;7.90;81.35
84944;BME280;75231;53.650;9.788;2024-01-25T04:21:38;102228.91;;;7.83;81.46
84944;BME280;75231;53.650;9.788;2024-01-25T04:24:03;102229.22;;;7.72;81.88
84944;BME280;75231;53.650;9.788;2024-01-25T04:26:29;102230.22;;;7.67;82.12
84944;BME280;75231;53.650;9.788;2024-01-25T04:28:54;102250.72;;;7.70;81.94
84944;BME280;75231;53.650;9.788;2024-01-25T04:31:19;102236.34;;;7.63;81.93
84944;BME280;75231;53.650;9.788;2024-01-25T04:33:45;102246.47;;;7.69;82.22
84944;BME280;75231;53.650;9.788;2024-01-25T04:36:10;102237.31;;;7.58;82.10
84944;BME280;75231;53.650;9.788;2024-01-25T04:38:36;102250.09;;;7.62;82.55
84944;BME280;75231;53.650;9.788;2024-01-25T04:41:01;102250.19;;;7.58;82.09
84944;BME280;75231;53.650;9.788;2024-01-25T04:43:26;102262.13;;;7.61;82.55
84944;BME280;75231;53.650;9.788;2024-01-25T04:45:51;102263.06;;;7.58;82.12
84944;BME280;75231;53.650;9.788;2024-01-25T04:48:17;102264.03;;;7.54;82.43
84944;BME280;75231;53.650;9.788;2024-01-25T04:50:42;102261.47;;;7.53;82.57
84944;BME280;75231;53.650;9.788;2024-01-25T04:53:07;102275.38;;;7.47;82.49
84944;BME280;75231;53.650;9.788;2024-01-25T04:55:32;102275.28;;;7.50;82.90
84944;BME280;75231;53.650;9.788;2024-01-25T04:57:58;102273.03;;;7.38;82.87
84944;BME280;75231;53.650;9.788;2024-01-25T05:00:23;102271.31;;;7.37;82.99
84944;BME280;75231;53.650;9.788;2024-01-25T05:03:23;102276.41;;;7.40;83.08
84944;BME280;75231;53.650;9.788;2024-01-25T05:05:48;102272.09;;;7.41;82.92
84944;BME280;75231;53.650;9.788;2024-01-25T05:08:13;102285.88;;;7.40;82.85
84944;BME280;75231;53.650;9.788;2024-01-25T05:10:38;102291.03;;;7.40;83.22
84944;BME280;75231;53.650;9.788;2024-01-25T05:13:04;102298.69;;;7.41;82.99
84944;BME280;75231;53.650;9.788;2024-01-25T05:15:29;102292.75;;;7.39;82.87
84944;BME280;75231;53.650;9.788;2024-01-25T05:17:54;102291.25;;;7.29;83.25
84944;BME280;75231;53.650;9.788;2024-01-25T05:20:19;102303.19;;;7.33;83.56
84944;BME280;75231;53.650;9.788;2024-01-25T05:22:45;102318.44;;;7.41;83.35
84944;BME280;75231;53.650;9.788;2024-01-25T05:25:11;102311.75;;;7.34;83.30
84944;BME280;75231;53.650;9.788;2024-01-25T05:27:36;102309.22;;;7.32;83.56
84944;BME280;75231;53.650;9.788;2024-01-25T05:30:02;102323.88;;;7.30;83.64
84944;BME280;75231;53.650;9.788;2024-01-25T05:32:28;102317.94;;;7.26;83.69
84944;BME280;75231;53.650;9.788;2024-01-25T05:34:54;102318.81;;;7.25;83.55
84944;BME280;75231;53.650;9.788;2024-01-25T05:37:19;102335.84;;;7.31;83.88
84944;BME280;75231;53.650;9.788;2024-01-25T05:39:44;102317.88;;;7.28;83.66
84944;BME280;75231;53.650;9.788;2024-01-25T05:42:09;102332.44;;;7.29;83.66
84944;BME280;75231;53.650;9.788;2024-01-25T05:44:35;102335.03;;;7.29;83.79
84944;BME280;75231;53.650;9.788;2024-01-25T05:47:00;102354.72;;;7.32;84.01
84944;BME280;75231;53.650;9.788;2024-01-25T05:49:25;102352.03;;;7.36;83.63
84944;BME280;75231;53.650;9.788;2024-01-25T05:51:50;102361.50;;;7.34;83.92
84944;BME280;75231;53.650;9.788;2024-01-25T05:54:15;102370.66;;;7.47;83.34
84944;BME280;75231;53.650;9.788;2024-01-25T05:56:41;102362.88;;;7.49;83.29
84944;BME280;75231;53.650;9.788;2024-01-25T05:59:06;102362.94;;;7.47;83.25
84944;BME280;75231;53.650;9.788;2024-01-25T06:01:31;102355.91;;;7.52;82.84
84944;BME280;75231;53.650;9.788;2024-01-25T06:03:57;102364.56;;;7.50;82.55
84944;BME280;75231;53.650;9.788;2024-01-25T06:06:22;102370.47;;;7.53;82.93
84944;BME280;75231;53.650;9.788;2024-01-25T06:08:47;102368.00;;;7.50;83.00
84944;BME280;75231;53.650;9.788;2024-01-25T06:11:12;102373.75;;;7.60;82.93
84944;BME280;75231;53.650;9.788;2024-01-25T06:13:38;102365.84;;;7.68;82.38
84944;BME280;75231;53.650;9.788;2024-01-25T06:16:03;102376.97;;;7.68;82.65
84944;BME280;75231;53.650;9.788;2024-01-25T06:18:28;102384.56;;;7.74;82.04
84944;BME280;75231;53.650;9.788;2024-01-25T06:20:53;102383.81;;;7.69;82.61
84944;BME280;75231;53.650;9.788;2024-01-25T06:23:18;102382.47;;;7.56;82.91
84944;BME280;75231;53.650;9.788;2024-01-25T06:25:44;102375.00;;;7.44;83.03
84944;BME280;75231;53.650;9.788;2024-01-25T06:28:09;102377.00;;;7.33;83.55
84944;BME280;75231;53.650;9.788;2024-01-25T06:30:34;102376.28;;;7.26;83.56
84944;BME280;75231;53.650;9.788;2024-01-25T06:32:59;102387.56;;;7.20;83.97
84944;BME280;75231;53.650;9.788;2024-01-25T06:35:25;102389.38;;;7.17;84.29
84944;BME280;75231;53.650;9.788;2024-01-25T06:37:50;102377.31;;;7.19;84.20
84944;BME280;75231;53.650;9.788;2024-01-25T06:40:15;102387.06;;;7.05;84.89
84944;BME280;75231;53.650;9.788;2024-01-25T06:42:40;102387.78;;;7.11;84.83
84944;BME280;75231;53.650;9.788;2024-01-25T06:45:07;102391.44;;;7.01;85.09
84944;BME280;75231;53.650;9.788;2024-01-25T06:47:33;102399.19;;;6.99;85.43
84944;BME280;75231;53.650;9.788;2024-01-25T06:49:58;102403.59;;;6.94;85.64
84944;BME280;75231;53.650;9.788;2024-01-25T06:52:23;102420.66;;;6.98;85.41
84944;BME280;75231;53.650;9.788;2024-01-25T06:54:48;102420.88;;;6.88;85.46
84944;BME280;75231;53.650;9.788;2024-01-25T06:57:14;102435.34;;;6.93;85.81
84944;BME280;75231;53.650;9.788;2024-01-25T06:59:39;102457.31;;;7.10;85.52
84944;BME280;75231;53.650;9.788;2024-01-25T07:02:05;102451.16;;;7.17;84.53
84944;BME280;75231;53.650;9.788;2024-01-25T07:04:30;102466.31;;;7.29;84.58
84944;BME280;75231;53.650;9.788;2024-01-25T07:06:55;102467.00;;;7.37;84.04
84944;BME280;75231;53.650;9.788;2024-01-25T07:09:20;102473.59;;;7.49;83.84
84944;BME280;75231;53.650;9.788;2024-01-25T07:11:46;102478.81;;;7.47;83.75
84944;BME280;75231;53.650;9.788;2024-01-25T07:14:11;102486.38;;;7.53;83.77
84944;BME280;75231;53.650;9.788;2024-01-25T07:16:37;102487.25;;;7.54;83.57
84944;BME280;75231;53.650;9.788;2024-01-25T07:19:02;102476.06;;;7.55;83.47
84944;BME280;75231;53.650;9.788;2024-01-25T07:21:28;102484.69;;;7.52;83.67
84944;BME280;75231;53.650;9.788;2024-01-25T07:23:53;102493.16;;;7.57;83.74
84944;BME280;75231;53.650;9.788;2024-01-25T07:26:18;102491.34;;;7.61;83.66
84944;BME280;75231;53.650;9.788;2024-01-25T07:28:44;102499.75;;;7.69;83.12
84944;BME280;75231;53.650;9.788;2024-01-25T07:31:09;102498.91;;;7.69;83.21
84944;BME280;75231;53.650;9.788;2024-01-25T07:33:35;102500.59;;;7.70;83.23
84944;BME280;75231;53.650;9.788;2024-01-25T07:36:02;102499.81;;;7.66;83.09
84944;BME280;75231;53.650;9.788;2024-01-25T07:38:30;102492.00;;;7.71;83.15
84944;BME280;75231;53.650;9.788;2024-01-25T07:40:55;102503.22;;;7.68;82.67
84944;BME280;75231;53.650;9.788;2024-01-25T07:43:20;102498.00;;;7.70;82.96
84944;BME280;75231;53.650;9.788;2024-01-25T07:45:46;102499.69;;;7.72;82.89
84944;BME280;75231;53.650;9.788;2024-01-25T07:48:11;102492.00;;;7.71;82.93
84944;BME280;75231;53.650;9.788;2024-01-25T07:50:36;102503.91;;;7.75;82.50
84944;BME280;75231;53.650;9.788;2024-01-25T07:53:02;102512.53;;;7.74;82.89
84944;BME280;75231;53.650;9.788;2024-01-25T07:55:28;102514.22;;;7.75;83.00
84944;BME280;75231;53.650;9.788;2024-01-25T07:57:55;102519.41;;;7.73;83.11
84944;BME280;75231;53.650;9.788;2024-01-25T08:00:20;102513.25;;;7.80;83.11
84944;BME280;75231;53.650;9.788;2024-01-25T08:02:45;102522.56;;;7.86;82.93
84944;BME280;75231;53.650;9.788;2024-01-25T08:05:11;102530.31;;;7.86;82.59
84944;BME280;75231;53.650;9.788;2024-01-25T08:07:36;102538.94;;;7.83;82.65
84944;BME280;75231;53.650;9.788;2024-01-25T08:10:03;102524.41;;;7.81;82.72
84944;BME280;75231;53.650;9.788;2024-01-25T08:12:29;102523.44;;;7.85;82.72
84944;BME280;75231;53.650;9.788;2024-01-25T08:14:54;102530.19;;;7.91;82.63
84944;BME280;75231;53.650;9.788;2024-01-25T08:17:20;102524.09;;;7.93;82.53
84944;BME280;75231;53.650;9.788;2024-01-25T08:19:45;102525.81;;;7.94;82.19
84944;BME280;75231;53.650;9.788;2024-01-25T08:22:11;102525.88;;;7.91;82.96
84944;BME280;75231;53.650;9.788;2024-01-25T08:24:36;102513.91;;;7.89;82.52
84944;BME280;75231;53.650;9.788;2024-01-25T08:27:01;102515.47;;;7.96;82.58
84944;BME280;75231;53.650;9.788;2024-01-25T08:29:27;102520.53;;;7.99;82.09
84944;BME280;75231;53.650;9.788;2024-01-25T08:31:52;102530.81;;;8.00;82.46
84944;BME280;75231;53.650;9.788;2024-01-25T08:34:17;102527.50;;;7.95;82.45
84944;BME280;75231;53.650;9.788;2024-01-25T08:36:42;102534.22;;;8.02;82.18
84944;BME280;75231;53.650;9.788;2024-01-25T08:39:08;102537.72;;;7.98;82.35
84944;BME280;75231;53.650;9.788;2024-01-25T08:41:34;102546.00;;;8.12;82.42
84944;BME280;75231;53.650;9.788;2024-01-25T08:43:59;102551.16;;;8.12;82.00
84944;BME280;75231;53.650;9.788;2024-01-25T08:46:24;102551.06;;;8.16;82.07
84944;BME280;75231;53.650;9.788;2024-01-25T08:48:49;102547.72;;;8.12;82.04
84944;BME280;75231;53.650;9.788;2024-01-25T08:51:15;102547.69;;;8.13;82.12
84944;BME280;75231;53.650;9.788;2024-01-25T08:53:40;102544.34;;;8.08;82.30
84944;BME280;75231;53.650;9.788;2024-01-25T08:56:06;102539.28;;;8.05;82.72
84944;BME280;75231;53.650;9.788;2024-01-25T08:58:31;102533.09;;;8.12;82.32
84944;BME280;75231;53.650;9.788;2024-01-25T09:00:56;102547.06;;;8.04;82.46
84944;BME280;75231;53.650;9.788;2024-01-25T09:03:21;102541.88;;;8.05;82.46
84944;BME280;75231;53.650;9.788;2024-01-25T09:05:47;102543.59;;;8.05;82.44
84944;BME280;75231;53.650;9.788;2024-01-25T09:08:13;102534.88;;;8.10;82.58
84944;BME280;75231;53.650;9.788;2024-01-25T09:10:40;102539.16;;;8.11;82.10
84944;BME280;75231;53.650;9.788;2024-01-25T09:13:06;102547.75;;;8.10;82.48
84944;BME280;75231;53.650;9.788;2024-01-25T09:15:31;102534.84;;;8.12;82.77
84944;BME280;75231;53.650;9.788;2024-01-25T09:17:56;102547.59;;;8.17;82.41
84944;BME280;75231;53.650;9.788;2024-01-25T09:20:22;102541.50;;;8.21;81.98
84944;BME280;75231;53.650;9.788;2024-01-25T09:22:47;102550.84;;;8.25;81.58
84944;BME280;75231;53.650;9.788;2024-01-25T09:25:12;102552.63;;;8.23;81.92
84944;BME280;75231;53.650;9.788;2024-01-25T09:27:37;102556.16;;;8.19;81.88
84944;BME280;75231;53.650;9.788;2024-01-25T09:30:04;102570.84;;;8.15;82.05
84944;BME280;75231;53.650;9.788;2024-01-25T09:32:30;102563.91;;;8.17;82.18
84944;BME280;75231;53.650;9.788;2024-01-25T09:34:55;102573.09;;;8.29;81.92
84944;BME280;75231;53.650;9.788;2024-01-25T09:37:20;102578.25;;;8.29;81.79
84944;BME280;75231;53.650;9.788;2024-01-25T09:39:48;102584.16;;;8.35;81.88
84944;BME280;75231;53.650;9.788;2024-01-25T09:42:13;102591.84;;;8.37;81.69
84944;BME280;75231;53.650;9.788;2024-01-25T09:44:39;102597.88;;;8.36;81.43
84944;BME280;75231;53.650;9.788;2024-01-25T09:47:05;102598.69;;;8.38;81.19
84944;BME280;75231;53.650;9.788;2024-01-25T09:49:32;102600.38;;;8.39;81.56
84944;BME280;75231;53.650;9.788;2024-01-25T09:51:59;102595.13;;;8.42;81.55
84944;BME280;75231;53.650;9.788;2024-01-25T09:54:35;102610.69;;;8.39;81.19
84944;BME280;75231;53.650;9.788;2024-01-25T09:57:03;102610.78;;;8.36;81.69
84944;BME280;75231;53.650;9.788;2024-01-25T09:59:31;102610.75;;;8.37;81.65
84944;BME280;75231;53.650;9.788;2024-01-25T10:01:57;102614.16;;;8.38;81.75
84944;BME280;75231;53.650;9.788;2024-01-25T10:04:23;102614.97;;;8.40;81.45
84944;BME280;75231;53.650;9.788;2024-01-25T10:06:49;102608.13;;;8.39;81.49
84944;BME280;75231;53.650;9.788;2024-01-25T10:09:14;102608.72;;;8.50;81.04
84944;BME280;75231;53.650;9.788;2024-01-25T10:11:40;102614.81;;;8.46;81.10
84944;BME280;75231;53.650;9.788;2024-01-25T10:14:05;102627.63;;;8.51;81.04
84944;BME280;75231;53.650;9.788;2024-01-25T10:16:32;102624.06;;;8.55;81.30
84944;BME280;75231;53.650;9.788;2024-01-25T10:22:18;102632.75;;;8.52;80.84
84944;BME280;75231;53.650;9.788;2024-01-25T10:24:44;102638.66;;;8.56;81.19
84944;BME280;75231;53.650;9.788;2024-01-25T10:27:10;102632.66;;;8.55;81.77
84944;BME280;75231;53.650;9.788;2024-01-25T10:29:36;102629.19;;;8.56;81.34
84944;BME280;75231;53.650;9.788;2024-01-25T10:32:06;102645.50;;;8.58;80.77
84944;BME280;75231;53.650;9.788;2024-01-25T10:34:35;102642.03;;;8.59;80.69
84944;BME280;75231;53.650;9.788;2024-01-25T10:37:00;102637.69;;;8.61;80.87
84944;BME280;75231;53.650;9.788;2024-01-25T10:39:28;102634.19;;;8.62;80.68
84944;BME280;75231;53.650;9.788;2024-01-25T10:41:54;102641.00;;;8.66;80.43
84944;BME280;75231;53.650;9.788;2024-01-25T10:44:21;102630.69;;;8.66;80.47
84944;BME280;75231;53.650;9.788;2024-01-25T10:46:47;102633.81;;;8.78;80.20
84944;BME280;75231;53.650;9.788;2024-01-25T10:49:13;102627.81;;;8.77;80.37
84944;BME280;75231;53.650;9.788;2024-01-25T10:51:39;102624.25;;;8.81;80.44
84944;BME280;75231;53.650;9.788;2024-01-25T10:54:07;102617.41;;;8.80;80.21
84944;BME280;75231;53.650;9.788;2024-01-25T10:56:34;102625.09;;;8.83;79.96
84944;BME280;75231;53.650;9.788;2024-01-25T10:59:00;102628.56;;;8.82;79.82
84944;BME280;75231;53.650;9.788;2024-01-25T11:01:27;102642.22;;;8.86;79.99
84944;BME280;75231;53.650;9.788;2024-01-25T11:03:52;102638.50;;;8.96;79.68
84944;BME280;75231;53.650;9.788;2024-01-25T11:06:20;102642.06;;;8.92;79.79
84944;BME280;75231;53.650;9.788;2024-01-25T11:08:46;102635.38;;;8.85;79.98
84944;BME280;75231;53.650;9.788;2024-01-25T11:11:13;102646.38;;;8.91;79.67
84944;BME280;75231;53.650;9.788;2024-01-25T11:13:42;102646.41;;;8.90;79.79
84944;BME280;75231;53.650;9.788;2024-01-25T11:16:15;102642.06;;;8.92;79.80
84944;BME280;75231;53.650;9.788;2024-01-25T11:18:53;102641.28;;;8.88;79.56
84944;BME280;75231;53.650;9.788;2024-01-25T11:21:26;102643.81;;;8.90;80.08
84944;BME280;75231;53.650;9.788;2024-01-25T11:23:59;102647.22;;;8.92;79.76
84944;BME280;75231;53.650;9.788;2024-01-25T11:26:25;102638.84;;;8.84;79.91
84944;BME280;75231;53.650;9.788;2024-01-25T11:28:51;102632.69;;;8.88;79.74
84944;BME280;75231;53.650;9.788;2024-01-25T11:31:17;102632.63;;;8.91;79.49
84944;BME280;75231;53.650;9.788;2024-01-25T11:33:42;102629.13;;;8.93;79.38
84944;BME280;75231;53.650;9.788;2024-01-25T11:36:07;102633.25;;;9.01;79.48
84944;BME280;75231;53.650;9.788;2024-01-25T11:38:33;102637.50;;;9.02;78.97
84944;BME280;75231;53.650;9.788;2024-01-25T11:40:58;102631.50;;;9.01;78.92
84944;BME280;75231;53.650;9.788;2024-01-25T11:43:24;102631.66;;;8.95;79.14
84944;BME280;75231;53.650;9.788;2024-01-25T11:45:49;102638.41;;;9.01;79.20
84944;BME280;75231;53.650;9.788;2024-01-25T11:48:14;102637.63;;;8.97;79.07
84944;BME280;75231;53.650;9.788;2024-01-25T11:50:40;102634.78;;;9.06;78.87
84944;BME280;75231;53.650;9.788;2024-01-25T11:53:05;102631.25;;;9.10;79.11
84944;BME280;75231;53.650;9.788;2024-01-25T11:55:30;102631.16;;;9.13;78.46
84944;BME280;75231;53.650;9.788;2024-01-25T11:57:56;102636.56;;;9.04;78.46
84944;BME280;75231;53.650;9.788;2024-01-25T12:00:21;102623.75;;;9.01;78.67
84944;BME280;75231;53.650;9.788;2024-01-25T12:02:48;102622.88;;;9.02;78.91
84944;BME280;75231;53.650;9.788;2024-01-25T12:05:13;102617.84;;;8.96;78.18
84944;BME280;75231;53.650;9.788;2024-01-25T12:07:39;102621.44;;;8.92;78.48
84944;BME280;75231;53.650;9.788;2024-01-25T12:10:07;102632.66;;;8.89;78.87
84944;BME280;75231;53.650;9.788;2024-01-25T12:12:34;102635.97;;;8.94;78.80
84944;BME280;75231;53.650;9.788;2024-01-25T12:15:01;102630.06;;;8.91;79.21
84944;BME280;75231;53.650;9.788;2024-01-25T12:17:27;102631.81;;;8.89;79.34
84944;BME280;75231;53.650;9.788;2024-01-25T12:19:57;102637.16;;;8.83;79.44
84944;BME280;75231;53.650;9.788;2024-01-25T12:22:24;102632.03;;;8.80;79.11
84944;BME280;75231;53.650;9.788;2024-01-25T12:24:53;102635.59;;;8.76;79.20
84944;BME280;75231;53.650;9.788;2024-01-25T12:27:20;102627.78;;;8.79;79.24
84944;BME280;75231;53.650;9.788;2024-01-25T12:29:45;102630.31;;;8.80;79.38
84944;BME280;75231;53.650;9.788;2024-01-25T12:32:10;102631.28;;;8.76;79.66
84944;BME280;75231;53.650;9.788;2024-01-25T12:34:36;102636.44;;;8.76;79.36
84944;BME280;75231;53.650;9.788;2024-01-25T12:37:03;102634.72;;;8.77;79.23
84944;BME280;75231;53.650;9.788;2024-01-25T12:39:28;102644.88;;;8.83;79.09
84944;BME280;75231;53.650;9.788;2024-01-25T12:42:08;102631.16;;;8.82;79.05
84944;BME280;75231;53.650;9.788;2024-01-25T12:44:34;102633.69;;;8.84;79.07
84944;BME280;75231;53.650;9.788;2024-01-25T12:46:59;102635.38;;;8.85;79.11
84944;BME280;75231;53.650;9.788;2024-01-25T12:49:26;102636.97;;;8.89;78.88
84944;BME280;75231;53.650;9.788;2024-01-25T12:51:51;102624.81;;;8.94;78.50
84944;BME280;75231;53.650;9.788;2024-01-25T12:54:17;102636.56;;;9.04;78.33
84944;BME280;75231;53.650;9.788;2024-01-25T12:56:42;102632.16;;;9.09;78.19